Last 7 Days

Gordon Valley 3

Hourly Data | America/Los_Angeles
as of 8/11/20 6:30 AM PDT
Date & Time Temp (°F) RH (%) Dew Pt (°F) Wind Spd (mph) Wind Dir (°) Wind Gust (mph) Latest Rain (In) Daily Rain (In) Daily Min Temp (°F) Daily Max Temp (°F)
8/11/20 - 0600 60.0 82 54.5 2.9 NW | 306 8.1 0.00 0.00 59.6 65.1
8/11/20 - 0500 60.1 82 54.5 2.0 WSW | 255 5.8 0.00 0.00 59.6 65.1
8/11/20 - 0400 61.2 79 54.5 2.6 WSW | 243 6.8 0.00 0.00 59.8 65.1
8/11/20 - 0300 60.5 79 54.0 1.5 WNW | 294 9.5 0.00 0.00 59.8 65.1
8/11/20 - 0200 62.4 73 53.8 1.9 SE | 130 5.4 0.00 0.00 60.4 65.1
8/11/20 - 0100 64.9 64 52.3 1.5 S | 177 6.1 0.00 0.00 58.5 97.5
8/11/20 - 0000 67.5 56 51.2 1.4 WSW | 238 5.4 0.00 0.00 58.5 97.5
8/10/20 - 2300 70.3 49 50.1 1.6 ESE | 123 7.4 0.00 0.00 58.5 97.5
8/10/20 - 2200 72.6 45 50.1 2.8 SE | 144 9.5 0.00 0.00 58.5 97.5
8/10/20 - 2100 75.8 42 50.8 4.0 NNW | 327 11.1 0.00 0.00 58.5 97.5
8/10/20 - 2000 79.6 38 51.5 4.5 N | 351 14.5 0.00 0.00 58.5 97.5
8/10/20 - 1900 86.4 31 52.0 4.6 NNE | 19 10.5 0.00 0.00 58.5 97.5
8/10/20 - 1800 91.6 27 53.0 4.2 SW | 230 12.1 0.00 0.00 58.5 97.5
8/10/20 - 1700 94.6 26 54.6 4.2 WNW | 295 12.1 0.00 0.00 58.5 97.5
8/10/20 - 1600 95.6 27 55.9 5.0 NW | 316 11.8 0.00 0.00 58.5 97.5
8/10/20 - 1500 96.4 27 56.8 5.8 NNE | 15 11.8 0.00 0.00 58.5 97.5
8/10/20 - 1400 94.7 28 57.0 7.4 S | 169 11.5 0.00 0.00 58.5 96.7
8/10/20 - 1300 91.6 30 55.8 5.3 S | 170 10.1 0.00 0.00 58.5 94.0
8/10/20 - 1200 86.9 35 55.7 5.0 S | 174 10.5 0.00 0.00 58.5 89.1
8/10/20 - 1100 82.6 38 54.6 5.4 SE | 146 10.5 0.00 0.00 58.5 85.1
8/10/20 - 1000 78.0 44 54.6 5.2 SSE | 154 8.8 0.00 0.00 58.5 79.8
8/10/20 - 0900 74.8 49 54.2 2.7 S | 178 6.1 0.00 0.00 58.5 77.6
8/10/20 - 0800 67.6 60 52.9 2.3 SSW | 198 6.1 0.00 0.00 58.5 70.7
8/10/20 - 0700 61.0 70 51.4 1.5 SW | 236 4.1 0.00 0.00 58.5 67.6
8/10/20 - 0600 58.9 77 51.8 0.8 N | 8 3.4 0.00 0.00 58.5 67.6
8/10/20 - 0500 59.4 75 51.6 0.6 W | 280 2.4 0.00 0.00 58.9 67.6
8/10/20 - 0400 61.4 70 51.4 0.7 WSW | 254 3.4 0.00 0.00 60.3 67.6
8/10/20 - 0300 64.0 63 51.0 0.6 N | 5 3.8 0.00 0.00 62.2 67.6
8/10/20 - 0200 67.0 51 48.4 1.2 SSW | 203 4.1 0.00 0.00 65.8 67.6
8/10/20 - 0100 67.9 52 49.7 0.9 WNW | 299 3.4 0.00 0.00 57.0 98.8
8/10/20 - 0000 70.0 50 50.4 0.7 SSW | 194 3.4 0.00 0.00 57.0 98.8
8/9/20 - 2300 71.5 48 50.6 1.0 S | 186 4.1 0.00 0.00 57.0 98.8
8/9/20 - 2200 75.2 42 50.8 1.4 WSW | 238 4.4 0.00 0.00 57.0 98.8
8/9/20 - 2100 80.1 36 50.9 1.1 NW | 326 5.4 0.00 0.00 57.0 98.8
8/9/20 - 2000 86.4 29 50.6 5.0 N | 9 11.1 0.00 0.00 57.0 98.8
8/9/20 - 1900 93.8 24 51.1 3.5 WNW | 284 12.5 0.00 0.00 57.0 98.8
8/9/20 - 1800 96.6 24 53.9 7.0 WSW | 248 12.8 0.00 0.00 57.0 98.8
8/9/20 - 1700 97.8 25 55.6 8.6 SW | 231 14.2 0.00 0.00 57.0 98.8
8/9/20 - 1600 98.1 24 55.4 8.8 SW | 222 13.8 0.00 0.00 57.0 98.8
8/9/20 - 1500 97.7 24 55.1 6.8 SSW | 199 12.1 0.00 0.00 57.0 98.8
8/9/20 - 1400 94.1 26 54.4 6.0 S | 174 12.5 0.00 0.00 57.0 96.5
8/9/20 - 1300 91.5 29 54.5 6.5 SSW | 195 11.5 0.00 0.00 57.0 93.3
8/9/20 - 1200 88.7 33 55.5 6.1 SSW | 202 9.8 0.00 0.00 57.0 89.9
8/9/20 - 1100 84.3 38 55.8 4.3 SSE | 163 8.8 0.00 0.00 57.0 87.3
8/9/20 - 1000 80.1 45 56.7 3.6 SSE | 160 7.1 0.00 0.00 57.0 83.1
8/9/20 - 0900 74.6 53 56.3 2.0 S | 188 4.4 0.00 0.00 57.0 78.5
8/9/20 - 0800 66.3 69 55.8 0.6 S | 188 2.7 0.00 0.00 57.0 71.1
8/9/20 - 0700 57.6 92 55.2 0.5 N | 0 2.1 0.00 0.00 57.0 61.8
8/9/20 - 0600 57.9 91 55.3 0.4 N | 6 1.7 0.00 0.00 57.4 61.8
8/9/20 - 0500 58.7 89 55.4 0.4 N | 1 2.1 0.00 0.00 58.2 61.8
8/9/20 - 0400 59.0 88 55.4 0.6 NE | 36 2.4 0.00 0.00 58.7 61.8
8/9/20 - 0300 59.7 85 55.3 0.5 NNE | 23 2.4 0.00 0.00 59.0 61.8
8/9/20 - 0200 60.9 82 55.3 0.6 NNW | 336 2.4 0.00 0.00 60.2 61.8
8/9/20 - 0100 64.0 73 55.1 0.6 E | 81 3.4 0.00 0.00 56.6 95.0
8/9/20 - 0000 66.5 67 55.2 1.5 SE | 136 6.4 0.00 0.00 56.6 95.0
8/8/20 - 2300 68.5 65 56.1 0.8 SE | 133 3.8 0.00 0.00 56.6 95.0
8/8/20 - 2200 72.1 57 56.3 1.5 NNE | 25 5.4 0.00 0.00 56.6 95.0
8/8/20 - 2100 76.0 51 56.5 1.6 N | 352 6.4 0.00 0.00 56.6 95.0
8/8/20 - 2000 81.3 43 57.0 4.3 N | 7 11.8 0.00 0.00 56.6 95.0
8/8/20 - 1900 88.4 36 58.1 4.5 N | 4 9.1 0.00 0.00 56.6 95.0
8/8/20 - 1800 93.3 30 57.1 5.2 NW | 310 11.1 0.00 0.00 56.6 95.0
8/8/20 - 1700 93.9 29 57.0 8.5 SW | 230 14.8 0.00 0.00 56.6 94.7
8/8/20 - 1600 94.0 29 57.1 8.6 SW | 226 14.5 0.00 0.00 56.6 94.7
8/8/20 - 1500 92.6 31 58.0 8.5 SSW | 204 13.8 0.00 0.00 56.6 93.7
8/8/20 - 1400 90.4 34 58.3 7.6 SSW | 194 13.2 0.00 0.00 56.6 92.0
8/8/20 - 1300 87.3 37 57.8 6.2 S | 179 11.8 0.00 0.00 56.6 89.3
8/8/20 - 1200 83.4 42 57.9 6.1 S | 182 10.8 0.00 0.00 56.6 85.2
8/8/20 - 1100 80.5 46 57.5 5.9 S | 176 10.5 0.00 0.00 56.6 81.8
8/8/20 - 1000 76.6 50 56.4 4.2 SSE | 167 8.1 0.00 0.00 56.6 79.3
8/8/20 - 0900 71.2 59 56.1 2.8 SSE | 166 6.4 0.00 0.00 56.6 74.8
8/8/20 - 0800 64.9 73 55.8 1.2 E | 90 5.8 0.00 0.00 56.6 70.0
8/8/20 - 0700 57.1 91 54.5 0.4 ENE | 68 0.4 0.00 0.00 56.6 70.0
8/8/20 - 0600 57.3 90 54.5 0.4 NNE | 19 0.4 0.00 0.00 56.9 70.0
8/8/20 - 0500 58.3 88 54.7 0.4 NNE | 23 0.4 0.00 0.00 57.8 70.0
8/8/20 - 0400 60.0 81 54.1 0.4 NE | 52 2.1 0.00 0.00 58.8 70.0
8/8/20 - 0300 62.3 75 54.4 1.1 SE | 133 4.1 0.00 0.00 61.6 70.0
8/8/20 - 0200 65.2 69 54.8 3.0 S | 169 6.8 0.00 0.00 63.1 70.0
8/8/20 - 0100 73.6 51 54.7 2.9 NNW | 338 8.8 0.00 0.00 52.9 92.0
8/8/20 - 0000 73.7 51 54.6 2.1 N | 355 10.1 0.00 0.00 52.9 92.0
8/7/20 - 2300 73.8 52 55.0 2.5 WNW | 301 7.8 0.00 0.00 52.9 92.0
8/7/20 - 2200 74.9 50 55.1 5.1 N | 356 10.8 0.00 0.00 52.9 92.0
8/7/20 - 2100 76.2 49 55.6 5.1 N | 358 11.8 0.00 0.00 52.9 92.0
8/7/20 - 2000 81.4 42 55.9 1.9 N | 11 10.1 0.00 0.00 52.9 92.0
8/7/20 - 1900 86.7 35 55.8 4.6 SW | 234 13.2 0.00 0.00 52.9 92.0
8/7/20 - 1800 88.5 34 56.2 6.9 SW | 232 12.8 0.00 0.00 52.9 92.0
8/7/20 - 1700 90.5 32 56.8 7.5 SW | 221 14.5 0.00 0.00 52.9 92.0
8/7/20 - 1600 91.3 32 57.5 6.1 SSW | 206 12.1 0.00 0.00 52.9 92.0
8/7/20 - 1500 88.9 35 57.8 5.5 S | 179 12.1 0.00 0.00 52.9 90.3
8/7/20 - 1400 87.8 37 58.0 6.2 SSW | 192 12.1 0.00 0.00 52.9 89.0
8/7/20 - 1300 84.0 41 57.7 6.3 S | 173 10.8 0.00 0.00 52.9 85.8
8/7/20 - 1200 79.9 45 56.9 3.8 S | 180 11.8 0.00 0.00 52.9 82.1
8/7/20 - 1100 76.0 51 56.4 4.2 S | 179 8.8 0.00 0.00 52.9 77.7
8/7/20 - 1000 71.5 58 55.8 2.1 SSE | 161 7.1 0.00 0.00 52.9 73.4
8/7/20 - 0900 67.8 65 55.5 1.3 SSE | 165 4.8 0.00 0.00 52.9 70.0
8/7/20 - 0800 61.9 79 55.3 0.7 SSW | 193 3.8 0.00 0.00 52.9 66.0
8/7/20 - 0700 53.8 97 52.9 0.4 NNE | 20 1.1 0.00 0.00 52.9 59.2
8/7/20 - 0600 53.3 96 52.1 0.5 WNW | 300 2.1 0.00 0.00 52.9 59.2
8/7/20 - 0500 54.2 95 52.9 0.4 NNE | 33 2.1 0.00 0.00 53.6 59.2
8/7/20 - 0400 55.6 92 53.4 0.5 NNE | 30 2.4 0.00 0.00 54.5 59.2
8/7/20 - 0300 56.9 88 53.6 0.4 NNE | 15 1.7 0.00 0.00 56.1 59.2
8/7/20 - 0200 58.5 85 53.9 0.5 ENE | 78 3.4 0.00 0.00 57.4 59.2
8/7/20 - 0100 59.1 82 53.6 0.6 ENE | 59 2.7 0.00 0.00 54.2 88.3
8/7/20 - 0000 60.5 79 54.0 0.9 NNE | 20 3.1 0.00 0.00 54.2 88.3
8/6/20 - 2300 64.1 69 53.6 1.0 SW | 223 3.4 0.00 0.00 54.2 88.3
8/6/20 - 2200 68.4 59 53.6 3.0 SSW | 192 7.1 0.00 0.00 54.2 88.3
8/6/20 - 2100 73.2 49 52.8 3.4 S | 190 8.1 0.00 0.00 54.2 88.3
8/6/20 - 2000 77.9 42 52.9 5.5 SSW | 211 15.5 0.00 0.00 54.2 88.3
8/6/20 - 1900 83.0 39 55.4 8.8 SW | 218 14.2 0.00 0.00 54.2 88.3
8/6/20 - 1800 84.9 38 56.4 9.0 SW | 228 16.2 0.00 0.00 54.2 88.3
8/6/20 - 1700 86.0 37 56.4 10.4 SW | 236 19.5 0.00 0.00 54.2 88.3
8/6/20 - 1600 86.7 36 56.9 9.4 WSW | 247 19.2 0.00 0.00 54.2 88.3
8/6/20 - 1500 87.1 37 57.5 5.6 W | 279 15.8 0.00 0.00 54.2 88.3
8/6/20 - 1400 84.2 41 57.7 4.9 S | 188 10.1 0.00 0.00 54.2 86.1
8/6/20 - 1300 79.4 48 57.8 5.3 SSE | 156 9.8 0.00 0.00 54.2 82.0
8/6/20 - 1200 76.4 52 57.6 5.2 S | 186 11.8 0.00 0.00 54.2 78.1
8/6/20 - 1100 72.2 59 57.2 6.2 SSW | 197 11.8 0.00 0.00 54.2 74.4
8/6/20 - 1000 69.1 64 56.6 4.4 SSW | 200 9.8 0.00 0.00 54.2 70.4
8/6/20 - 0900 63.8 75 55.7 2.1 S | 171 5.8 0.00 0.00 54.2 66.8
8/6/20 - 0800 60.4 84 55.5 1.0 WSW | 250 5.4 0.00 0.00 54.2 61.5
8/6/20 - 0700 58.8 88 55.2 0.6 W | 272 2.7 0.00 0.00 54.2 59.3
8/6/20 - 0600 57.7 90 54.9 0.7 NNW | 341 4.8 0.00 0.00 54.2 58.6
8/6/20 - 0500 55.3 93 53.3 0.6 S | 182 2.7 0.00 0.00 54.2 57.7
8/6/20 - 0400 56.4 90 53.6 0.6 NW | 307 2.7 0.00 0.00 54.9 57.7
8/6/20 - 0300 55.7 91 53.2 0.6 WNW | 290 2.7 0.00 0.00 55.3 57.7
8/6/20 - 0200 56.4 89 53.4 0.9 NNW | 339 4.1 0.00 0.00 55.9 57.7
8/6/20 - 0100 58.6 86 54.4 3.5 W | 259 10.8 0.00 0.00 53.3 80.6
8/6/20 - 0000 59.4 84 54.7 6.6 SW | 228 13.2 0.00 0.00 53.3 80.6
8/5/20 - 2300 59.8 83 54.6 6.1 SW | 217 12.1 0.00 0.00 53.3 80.6
8/5/20 - 2200 61.0 79 54.6 6.6 SSW | 208 12.8 0.00 0.00 53.3 80.6
8/5/20 - 2100 62.9 74 54.6 8.2 SSW | 210 15.2 0.00 0.00 53.3 80.6
8/5/20 - 2000 66.5 67 55.0 9.4 SSW | 212 15.2 0.00 0.00 53.3 80.6
8/5/20 - 1900 72.1 56 55.6 10.0 SSW | 209 17.2 0.00 0.00 53.3 80.6
8/5/20 - 1800 75.1 51 56.0 10.4 SW | 214 18.5 0.00 0.00 53.3 80.6
8/5/20 - 1700 76.4 50 56.5 12.4 SW | 220 21.9 0.00 0.00 53.3 80.6
8/5/20 - 1600 78.8 47 56.8 11.5 SW | 214 19.5 0.00 0.00 53.3 80.6
8/5/20 - 1500 79.9 46 57.1 10.9 SW | 220 19.8 0.00 0.00 53.3 80.6
8/5/20 - 1400 77.9 49 57.2 10.8 S | 190 17.2 0.00 0.00 53.3 79.7
8/5/20 - 1300 75.4 52 56.7 10.0 SSW | 197 16.8 0.00 0.00 53.3 76.6
8/5/20 - 1200 72.1 58 56.4 10.6 S | 188 17.8 0.00 0.00 53.3 73.7
8/5/20 - 1100 69.2 62 55.8 9.7 SSW | 209 16.2 0.00 0.00 53.3 71.8
8/5/20 - 1000 65.1 71 55.3 9.0 SW | 222 16.2 0.00 0.00 53.3 67.7
8/5/20 - 0900 60.9 80 54.7 8.3 SW | 225 15.5 0.00 0.00 53.3 62.4
8/5/20 - 0800 57.4 89 54.2 6.9 SW | 228 14.2 0.00 0.00 53.3 59.4
8/5/20 - 0700 56.0 92 53.7 5.0 SW | 224 10.8 0.00 0.00 53.3 59.4
8/5/20 - 0600 56.0 91 53.4 3.5 WSW | 246 7.8 0.00 0.00 53.3 59.4
8/5/20 - 0500 55.1 91 52.7 1.3 WNW | 285 7.4 0.00 0.00 53.3 59.4
8/5/20 - 0400 58.3 86 54.2 3.9 SW | 236 10.5 0.00 0.00 56.5 59.4
8/5/20 - 0300 59.1 86 54.8 6.3 SW | 224 12.1 0.00 0.00 57.9 59.4
8/5/20 - 0200 58.9 86 54.7 4.5 SW | 232 11.1 0.00 0.00 57.9 59.4
8/5/20 - 0100 58.7 86 54.6 1.6 WNW | 284 7.4 0.00 0.00 51.7 93.9
8/5/20 - 0000 61.0 81 55.1 1.5 SSW | 211 7.4 0.00 0.00 51.7 93.9
8/4/20 - 2300 63.4 76 55.8 4.8 SSW | 213 10.5 0.00 0.00 51.7 93.9
8/4/20 - 2200 65.1 73 56.2 6.2 SSW | 204 11.1 0.00 0.00 51.7 93.9
8/4/20 - 2100 68.9 64 56.0 4.8 SSW | 202 10.5 0.00 0.00 51.7 93.9
8/4/20 - 2000 74.2 54 56.5 6.9 SSW | 207 13.2 0.00 0.00 51.7 93.9
8/4/20 - 1900 84.1 40 57.3 6.5 SSW | 207 14.5 0.00 0.00 51.7 93.9
8/4/20 - 1800 87.9 35 57.2 5.5 WSW | 239 11.8 0.00 0.00 51.7 93.9
8/4/20 - 1700 90.4 33 57.3 6.6 WSW | 246 11.8 0.00 0.00 51.7 93.9
8/4/20 - 1600 91.4 32 57.2 9.0 WSW | 239 15.2 0.00 0.00 51.7 93.9
8/4/20 - 1500 92.8 31 57.2 7.5 SSW | 213 15.2 0.00 0.00 51.7 93.9
8/4/20 - 1400 88.1 37 58.6 6.5 SSE | 156 12.5 0.00 0.00 51.7 91.0
8/4/20 - 1300 83.7 42 58.2 8.8 S | 190 14.2 0.00 0.00 51.7 85.2
8/4/20 - 1200 81.5 45 58.3 7.8 S | 188 14.8 0.00 0.00 51.7 82.9
8/4/20 - 1100 78.2 49 57.4 5.7 S | 185 11.1 0.00 0.00 51.7 80.2
8/4/20 - 1000 74.1 55 56.7 3.4 S | 176 8.1 0.00 0.00 51.7 75.6
8/4/20 - 0900 70.8 60 56.3 2.3 SSW | 192 7.1 0.00 0.00 51.7 73.0
8/4/20 - 0800 63.5 78 56.6 0.9 SW | 220 3.4 0.00 0.00 51.7 67.6
8/4/20 - 0700 53.6 98 53.0 0.4 SW | 235 1.7 0.00 0.00 51.7 59.2
Max 98.1 98 58.6 12.4 - 21.9 0.00 0.00 65.8 98.8
Avg 73.0 58 55.0 4.2 - 9.2 0.00 - - -
Min 53.3 24 48.4 0.4 - 0.4 0.00 0.00 51.7 57.7
Total - - - - - - 0.00 - - -
Tip: Bookmark this page for easy future reference